createdAt,value
2019-03-12T00:01:24.687Z,99.10
2019-03-12T00:03:51.939Z,99.00
2019-03-12T00:06:19.282Z,99.40
2019-03-12T00:08:46.526Z,99.60
2019-03-12T00:11:13.898Z,99.70
2019-03-12T00:13:41.250Z,99.70
2019-03-12T00:16:08.724Z,99.90
2019-03-12T00:18:36.187Z,99.90
2019-03-12T00:21:03.554Z,99.90
2019-03-12T00:23:30.914Z,99.90
2019-03-12T00:25:58.275Z,99.90
2019-03-12T00:28:25.626Z,99.90
2019-03-12T00:30:52.898Z,99.90
2019-03-12T00:33:20.157Z,99.90
2019-03-12T00:35:47.394Z,99.90
2019-03-12T00:38:14.654Z,99.90
2019-03-12T00:40:41.914Z,99.90
2019-03-12T00:43:09.302Z,99.90
2019-03-12T00:45:36.570Z,99.90
2019-03-12T00:48:03.851Z,99.90
2019-03-12T00:50:31.098Z,99.90
2019-03-12T00:52:58.339Z,99.90
2019-03-12T00:55:25.604Z,99.90
2019-03-12T00:57:52.976Z,99.90
2019-03-12T01:00:20.330Z,99.90
2019-03-12T01:02:47.798Z,99.90
2019-03-12T01:05:15.145Z,99.90
2019-03-12T01:07:42.395Z,99.90
2019-03-12T01:10:13.859Z,99.90
2019-03-12T01:12:41.546Z,99.90
2019-03-12T01:15:09.678Z,99.90
2019-03-12T01:17:37.030Z,99.90
2019-03-12T01:20:05.327Z,99.90
2019-03-12T01:22:32.580Z,99.90
2019-03-12T01:24:59.831Z,99.90
2019-03-12T01:27:27.200Z,99.90
2019-03-12T01:29:54.487Z,99.90
2019-03-12T01:32:21.754Z,99.90
2019-03-12T01:34:49.109Z,99.90
2019-03-12T01:37:16.486Z,99.90
2019-03-12T01:39:43.917Z,99.90
2019-03-12T01:42:11.158Z,99.90
2019-03-12T01:44:38.411Z,99.90
2019-03-12T01:47:05.662Z,99.90
2019-03-12T01:49:33.011Z,99.90
2019-03-12T01:52:00.383Z,99.90
2019-03-12T01:54:27.787Z,99.90
2019-03-12T01:56:55.346Z,99.90
2019-03-12T01:59:22.607Z,99.90
2019-03-12T02:01:49.894Z,99.90
2019-03-12T02:04:17.218Z,99.90
2019-03-12T02:06:44.586Z,99.90
2019-03-12T02:09:11.828Z,99.90
2019-03-12T02:11:39.179Z,99.90
2019-03-12T02:14:23.614Z,99.90
2019-03-12T02:16:50.991Z,99.90
2019-03-12T02:19:18.263Z,99.90
2019-03-12T02:21:45.564Z,99.90
2019-03-12T02:24:13.143Z,99.90
2019-03-12T02:26:40.540Z,99.90
2019-03-12T02:29:07.794Z,99.90
2019-03-12T02:31:35.126Z,99.90
2019-03-12T02:34:02.479Z,99.90
2019-03-12T02:36:29.746Z,99.90
2019-03-12T02:38:57.094Z,99.90
2019-03-12T02:41:24.351Z,99.90
2019-03-12T02:43:51.715Z,99.90
2019-03-12T02:46:18.987Z,99.90
2019-03-12T02:48:46.251Z,99.90
2019-03-12T02:51:13.564Z,99.90
2019-03-12T02:53:40.912Z,99.90
2019-03-12T02:56:08.274Z,99.90
2019-03-12T02:58:35.636Z,99.90
2019-03-12T03:01:02.999Z,99.90
2019-03-12T03:03:30.477Z,99.90
2019-03-12T03:06:04.803Z,99.90
2019-03-12T03:08:32.864Z,99.90
2019-03-12T03:11:00.223Z,99.90
2019-03-12T03:13:27.781Z,99.90
2019-03-12T03:15:55.164Z,99.90
2019-03-12T03:18:22.408Z,99.90
2019-03-12T03:20:49.694Z,99.90
2019-03-12T03:23:16.946Z,99.90
2019-03-12T03:25:44.198Z,99.90
2019-03-12T03:28:11.461Z,99.90
2019-03-12T03:30:38.815Z,99.90
2019-03-12T03:33:07.063Z,99.90
2019-03-12T03:35:34.457Z,99.90
2019-03-12T03:38:01.735Z,99.90
2019-03-12T03:40:29.241Z,99.90
2019-03-12T03:42:56.615Z,99.90
2019-03-12T03:45:24.012Z,99.90
2019-03-12T03:47:51.392Z,99.90
2019-03-12T03:50:19.134Z,99.90
2019-03-12T03:52:46.771Z,99.90
2019-03-12T03:55:15.208Z,99.90
2019-03-12T03:57:42.785Z,99.90
2019-03-12T04:00:13.298Z,99.90
2019-03-12T04:02:40.853Z,99.90
2019-03-12T04:05:08.651Z,99.90
2019-03-12T04:07:36.115Z,99.90
2019-03-12T04:10:04.323Z,99.90
2019-03-12T04:12:31.700Z,99.90
2019-03-12T04:14:59.076Z,99.90
2019-03-12T04:17:26.564Z,99.90
2019-03-12T04:19:53.969Z,99.90
2019-03-12T04:22:21.373Z,99.90
2019-03-12T04:24:48.696Z,99.90
2019-03-12T04:27:16.195Z,99.90
2019-03-12T04:29:43.656Z,99.90
2019-03-12T04:32:11.064Z,99.90
2019-03-12T04:34:40.560Z,99.90
2019-03-12T04:37:07.984Z,99.90
2019-03-12T04:39:35.359Z,99.90
2019-03-12T04:42:02.628Z,99.90
2019-03-12T04:44:29.895Z,99.90
2019-03-12T04:46:57.265Z,99.90
2019-03-12T04:49:24.497Z,99.90
2019-03-12T04:51:51.908Z,99.90
2019-03-12T04:54:19.323Z,99.90
2019-03-12T04:56:46.699Z,99.90
2019-03-12T04:59:14.056Z,99.90
2019-03-12T05:01:41.443Z,99.90
2019-03-12T05:04:08.714Z,99.90
2019-03-12T05:06:36.089Z,99.90
2019-03-12T05:09:07.328Z,99.90
2019-03-12T05:11:35.047Z,99.90
2019-03-12T05:14:38.631Z,99.90
2019-03-12T05:17:25.569Z,99.90
2019-03-12T05:19:52.926Z,99.90
2019-03-12T05:22:22.495Z,99.90
2019-03-12T05:24:49.771Z,99.90
2019-03-12T05:27:17.263Z,99.90
2019-03-12T05:29:44.502Z,99.90
2019-03-12T05:32:11.767Z,99.90
2019-03-12T05:34:40.000Z,99.90
2019-03-12T05:37:07.304Z,99.90
2019-03-12T05:39:34.580Z,99.90
2019-03-12T05:42:01.929Z,99.90
2019-03-12T05:44:29.177Z,99.90
2019-03-12T05:46:56.424Z,99.90
2019-03-12T05:49:23.707Z,99.90
2019-03-12T05:51:50.995Z,99.90
2019-03-12T05:54:18.358Z,99.90
2019-03-12T05:56:45.606Z,99.90
2019-03-12T05:59:12.972Z,99.90
2019-03-12T06:01:40.350Z,99.90
2019-03-12T06:04:07.663Z,99.90
2019-03-12T06:06:35.071Z,99.90
2019-03-12T06:09:04.166Z,99.90
2019-03-12T06:11:31.408Z,99.90
2019-03-12T06:13:58.667Z,99.90
2019-03-12T06:16:25.918Z,99.90
2019-03-12T06:18:53.329Z,99.90
2019-03-12T06:21:20.790Z,99.90
2019-03-12T06:23:48.068Z,99.90
2019-03-12T06:26:15.452Z,99.90
2019-03-12T06:28:42.791Z,99.90
2019-03-12T06:31:38.808Z,99.90
2019-03-12T06:34:12.419Z,99.90
2019-03-12T06:37:03.059Z,99.90
2019-03-12T06:39:42.865Z,99.90
2019-03-12T06:42:27.043Z,99.90
2019-03-12T06:45:09.143Z,99.90
2019-03-12T06:47:55.724Z,99.90
2019-03-12T06:50:45.247Z,99.90
2019-03-12T06:53:30.907Z,99.90
2019-03-12T06:56:17.803Z,99.90
2019-03-12T06:58:56.204Z,99.90
2019-03-12T07:01:36.895Z,99.80
2019-03-12T07:04:26.320Z,99.60
2019-03-12T07:07:22.535Z,99.90
2019-03-12T07:09:59.666Z,99.30
2019-03-12T07:12:46.538Z,99.40
2019-03-12T07:15:42.275Z,99.90
2019-03-12T07:18:31.999Z,99.50
2019-03-12T07:21:24.808Z,99.90
2019-03-12T07:24:03.781Z,99.90
2019-03-12T07:26:49.618Z,99.20
2019-03-12T07:29:42.117Z,98.80
2019-03-12T07:32:27.759Z,97.20
2019-03-12T07:35:13.067Z,97.60
2019-03-12T07:37:51.578Z,97.70
2019-03-12T07:40:39.479Z,98.60
2019-03-12T07:43:19.030Z,98.10
2019-03-12T07:45:52.303Z,97.80
2019-03-12T07:48:28.195Z,97.80
2019-03-12T07:51:23.802Z,97.80
2019-03-12T07:54:13.626Z,98.10
2019-03-12T07:57:00.560Z,98.30
2019-03-12T07:59:55.897Z,98.60
2019-03-12T08:02:41.251Z,98.70
2019-03-12T08:05:28.545Z,98.70
2019-03-12T08:08:08.228Z,99.00
2019-03-12T08:10:47.054Z,99.90
2019-03-12T08:13:29.342Z,99.60
2019-03-12T08:16:03.982Z,99.30
2019-03-12T08:18:50.854Z,99.00
2019-03-12T08:21:49.535Z,98.30
2019-03-12T08:24:21.842Z,97.20
2019-03-12T08:27:07.639Z,97.30
2019-03-12T08:29:52.971Z,98.30
2019-03-12T08:32:38.205Z,98.10
2019-03-12T08:35:23.420Z,97.80
2019-03-12T08:38:09.823Z,96.80
2019-03-12T08:41:02.261Z,95.90
2019-03-12T08:43:49.163Z,96.30
2019-03-12T08:46:44.962Z,95.90
2019-03-12T08:49:34.776Z,95.50
2019-03-12T08:52:26.698Z,96.30
2019-03-12T08:55:03.991Z,96.70
2019-03-12T08:58:04.946Z,97.20
2019-03-12T09:00:41.862Z,98.50
2019-03-12T09:03:27.491Z,99.60
2019-03-12T09:06:26.202Z,99.90
2019-03-12T09:09:11.847Z,99.90
2019-03-12T09:11:57.596Z,99.90
2019-03-12T09:14:42.943Z,99.90
2019-03-12T09:17:28.347Z,99.90
2019-03-12T09:20:26.623Z,99.90
2019-03-12T09:23:19.286Z,99.90
2019-03-12T09:26:05.050Z,99.90
2019-03-12T09:28:51.960Z,99.50
2019-03-12T09:31:37.479Z,99.60
2019-03-12T09:34:24.383Z,99.00
2019-03-12T09:37:04.854Z,99.00
2019-03-12T09:39:41.905Z,98.60
2019-03-12T09:42:29.834Z,98.40
2019-03-12T09:45:13.098Z,99.10
2019-03-12T09:47:58.714Z,99.30
2019-03-12T09:50:40.675Z,99.20
2019-03-12T09:53:15.161Z,98.20
2019-03-12T09:55:56.759Z,98.40
2019-03-12T09:58:40.274Z,98.20
2019-03-12T10:01:25.478Z,98.50
2019-03-12T10:04:27.239Z,97.80
2019-03-12T10:07:17.267Z,97.70
2019-03-12T10:10:00.621Z,97.00
2019-03-12T10:13:02.439Z,97.30
2019-03-12T10:15:39.572Z,97.80
2019-03-12T10:18:38.571Z,98.00
2019-03-12T10:21:25.427Z,97.30
2019-03-12T10:24:05.959Z,97.50
2019-03-12T10:26:51.340Z,97.50
2019-03-12T10:29:27.187Z,97.70
2019-03-12T10:32:05.482Z,98.00
2019-03-12T10:34:51.015Z,97.70
2019-03-12T10:37:40.027Z,97.90
2019-03-12T10:40:13.648Z,97.00
2019-03-12T10:42:50.096Z,97.50
2019-03-12T10:45:37.319Z,95.90
2019-03-12T10:48:04.548Z,96.40
2019-03-12T10:50:32.102Z,96.10
2019-03-12T10:52:59.387Z,95.30
2019-03-12T10:55:26.652Z,95.80
2019-03-12T10:57:53.911Z,94.60
2019-03-12T11:00:21.260Z,95.00
2019-03-12T11:02:48.591Z,95.10
2019-03-12T11:05:16.741Z,94.20
2019-03-12T11:07:44.098Z,94.00
2019-03-12T11:10:12.223Z,94.10
2019-03-12T11:12:39.579Z,92.90
2019-03-12T11:15:08.061Z,93.90
2019-03-12T11:17:48.411Z,93.80
2019-03-12T11:20:17.132Z,93.30
2019-03-12T11:22:44.523Z,93.10
2019-03-12T11:25:11.868Z,93.50
2019-03-12T11:27:39.215Z,93.40
2019-03-12T11:30:08.851Z,94.40
2019-03-12T11:32:36.310Z,93.70
2019-03-12T11:35:04.294Z,93.20
2019-03-12T11:37:31.546Z,93.30
2019-03-12T11:39:58.910Z,92.90
2019-03-12T11:42:26.284Z,93.20
2019-03-12T11:44:53.661Z,92.80
2019-03-12T11:47:21.115Z,92.10
2019-03-12T11:49:48.616Z,92.30
2019-03-12T11:52:15.981Z,93.10
2019-03-12T11:54:43.329Z,92.80
2019-03-12T11:57:10.679Z,92.70
2019-03-12T11:59:37.933Z,92.70
2019-03-12T12:02:05.495Z,92.40
2019-03-12T12:04:32.748Z,91.10
2019-03-12T12:06:59.991Z,91.30
2019-03-12T12:09:27.573Z,91.40
2019-03-12T12:11:55.219Z,90.90
2019-03-12T12:14:22.589Z,90.00
2019-03-12T12:16:49.835Z,90.90
2019-03-12T12:19:17.193Z,88.90
2019-03-12T12:21:44.574Z,89.50
2019-03-12T12:24:11.929Z,89.80
2019-03-12T12:26:39.172Z,87.40
2019-03-12T12:29:06.419Z,85.80
2019-03-12T12:31:33.796Z,86.60
2019-03-12T12:34:01.042Z,87.70
2019-03-12T12:36:28.298Z,85.80
2019-03-12T12:38:55.558Z,86.40
2019-03-12T12:41:22.815Z,83.70
2019-03-12T12:43:51.031Z,85.80
2019-03-12T12:46:18.285Z,85.60
2019-03-12T12:48:45.544Z,86.40
2019-03-12T12:51:13.011Z,85.00
2019-03-12T12:53:40.273Z,83.50
2019-03-12T12:56:07.634Z,83.30
2019-03-12T12:58:34.900Z,85.90
2019-03-12T13:01:02.163Z,85.50
2019-03-12T13:03:29.551Z,82.60
2019-03-12T13:05:56.793Z,82.70
2019-03-12T13:08:24.054Z,80.50
2019-03-12T13:10:51.303Z,84.30
2019-03-12T13:13:18.638Z,85.20
2019-03-12T13:15:45.991Z,85.30
2019-03-12T13:18:16.344Z,86.00
2019-03-12T13:20:42.383Z,84.80
2019-03-12T13:23:09.739Z,86.40
2019-03-12T13:25:37.024Z,84.90
2019-03-12T13:28:04.288Z,82.90
2019-03-12T13:30:31.630Z,83.70
2019-03-12T13:32:58.883Z,85.30
2019-03-12T13:35:26.225Z,85.00
2019-03-12T13:37:53.575Z,84.30
2019-03-12T13:40:21.653Z,84.70
2019-03-12T13:42:49.183Z,85.80
2019-03-12T13:45:17.894Z,85.90
2019-03-12T13:47:45.683Z,85.30
2019-03-12T13:50:13.539Z,84.80
2019-03-12T13:52:40.996Z,85.90
2019-03-12T13:55:09.291Z,85.50
2019-03-12T13:57:36.528Z,85.80
2019-03-12T14:00:06.867Z,85.10
2019-03-12T14:02:34.217Z,85.40
2019-03-12T14:05:01.450Z,84.70
2019-03-12T14:07:28.908Z,84.60
2019-03-12T14:09:56.282Z,85.10
2019-03-12T14:12:23.515Z,85.70
2019-03-12T14:14:50.987Z,85.20
2019-03-12T14:17:18.342Z,86.00
2019-03-12T14:19:45.683Z,85.80
2019-03-12T14:22:13.131Z,85.90
2019-03-12T14:24:40.370Z,86.30
2019-03-12T14:27:07.828Z,87.00
2019-03-12T14:29:35.131Z,86.60
2019-03-12T14:32:02.443Z,86.20
2019-03-12T14:34:29.782Z,86.20
2019-03-12T14:36:57.343Z,86.60
2019-03-12T14:39:24.600Z,86.30
2019-03-12T14:41:51.938Z,84.50
2019-03-12T14:44:19.398Z,83.90
2019-03-12T14:46:46.660Z,82.10
2019-03-12T14:49:14.062Z,84.20
2019-03-12T14:51:58.216Z,85.30
2019-03-12T14:54:25.483Z,83.30
2019-03-12T14:56:52.859Z,82.40
2019-03-12T14:59:20.119Z,80.60
2019-03-12T15:01:47.460Z,81.20
2019-03-12T15:04:15.295Z,80.10
2019-03-12T15:06:42.695Z,80.30
2019-03-12T15:09:12.566Z,81.00
2019-03-12T15:11:39.831Z,79.10
2019-03-12T15:14:07.196Z,78.20
2019-03-12T15:16:34.548Z,79.30
2019-03-12T15:19:01.923Z,80.00
2019-03-12T15:21:29.382Z,78.60
2019-03-12T15:23:57.055Z,79.00
2019-03-12T15:26:24.434Z,78.90
2019-03-12T15:28:51.883Z,77.00
2019-03-12T15:31:19.342Z,76.70
2019-03-12T15:33:46.695Z,78.80
2019-03-12T15:36:14.060Z,80.10
2019-03-12T15:38:41.295Z,78.70
2019-03-12T15:41:08.548Z,77.60
2019-03-12T15:43:35.906Z,78.20
2019-03-12T15:46:03.143Z,77.90
2019-03-12T15:48:30.506Z,78.90
2019-03-12T15:50:57.772Z,77.00
2019-03-12T15:53:25.006Z,77.60
2019-03-12T15:55:54.607Z,77.40
2019-03-12T15:58:21.545Z,77.80
2019-03-12T16:00:48.878Z,78.80
2019-03-12T16:03:16.124Z,77.80
2019-03-12T16:05:43.487Z,79.40
2019-03-12T16:08:10.822Z,79.10
2019-03-12T16:10:38.151Z,78.60
2019-03-12T16:13:07.650Z,79.90
2019-03-12T16:15:37.546Z,81.00
2019-03-12T16:18:03.803Z,80.40
2019-03-12T16:20:31.078Z,80.30
2019-03-12T16:22:58.434Z,78.90
2019-03-12T16:25:25.787Z,79.20
2019-03-12T16:27:53.155Z,78.40
2019-03-12T16:30:20.807Z,79.30
2019-03-12T16:32:48.143Z,79.40
2019-03-12T16:42:52.838Z,80.30
2019-03-12T16:45:20.111Z,80.90
2019-03-12T16:47:47.490Z,81.50
2019-03-12T16:50:15.715Z,82.50
2019-03-12T16:52:44.742Z,84.70
2019-03-12T16:55:12.419Z,85.50
2019-03-12T16:57:39.763Z,86.20
2019-03-12T17:00:08.850Z,86.50
2019-03-12T17:02:48.891Z,86.90
2019-03-12T17:05:16.122Z,87.20
2019-03-12T17:07:43.375Z,87.70
2019-03-12T17:10:10.805Z,87.20
2019-03-12T17:12:38.306Z,87.40
2019-03-12T17:15:07.447Z,88.10
2019-03-12T17:17:34.991Z,88.40
2019-03-12T17:20:02.418Z,89.00
2019-03-12T17:22:29.747Z,88.10
2019-03-12T17:24:57.243Z,88.20
2019-03-12T17:27:24.550Z,88.80
2019-03-12T17:29:52.073Z,88.50
2019-03-12T17:32:19.703Z,88.40
2019-03-12T17:34:47.042Z,89.10
2019-03-12T17:37:14.326Z,89.20
2019-03-12T17:39:41.590Z,88.50
2019-03-12T17:42:08.878Z,88.50
2019-03-12T17:44:36.122Z,88.50
2019-03-12T17:47:03.479Z,89.00
2019-03-12T17:49:30.752Z,89.70
2019-03-12T17:51:58.143Z,90.30
2019-03-12T17:54:25.478Z,90.10
2019-03-12T17:56:52.915Z,90.40
2019-03-12T17:59:20.390Z,91.30
2019-03-12T18:01:47.954Z,92.00
2019-03-12T18:04:15.438Z,92.00
2019-03-12T18:06:42.904Z,92.30
2019-03-12T18:09:10.458Z,92.20
2019-03-12T18:11:37.790Z,92.00
2019-03-12T18:14:05.151Z,91.90
2019-03-12T18:16:40.858Z,91.70
2019-03-12T18:19:01.774Z,91.60
2019-03-12T18:21:29.334Z,91.10
2019-03-12T18:23:56.861Z,91.20
2019-03-12T18:26:24.230Z,91.50
2019-03-12T18:28:51.691Z,92.00
2019-03-12T18:31:19.401Z,92.30
2019-03-12T18:33:46.851Z,92.00
2019-03-12T18:36:14.239Z,92.70
2019-03-12T18:38:41.511Z,92.90
2019-03-12T18:41:08.930Z,92.80
2019-03-12T18:43:36.374Z,93.00
2019-03-12T18:46:03.820Z,92.80
2019-03-12T18:48:31.189Z,92.60
2019-03-12T18:50:58.576Z,92.60
2019-03-12T18:53:26.063Z,92.40
2019-03-12T18:56:01.981Z,92.40
2019-03-12T18:58:29.388Z,92.80
2019-03-12T19:00:58.942Z,93.00
2019-03-12T19:03:26.316Z,93.00
2019-03-12T19:05:53.783Z,93.00
2019-03-12T19:08:21.411Z,93.00
2019-03-12T19:10:48.874Z,92.50
2019-03-12T19:13:16.352Z,92.40
2019-03-12T19:15:43.728Z,91.90
2019-03-12T19:18:10.983Z,91.90
2019-03-12T19:20:38.461Z,92.00
2019-03-12T19:23:06.129Z,92.10
2019-03-12T19:25:33.826Z,92.70
2019-03-12T19:28:01.246Z,92.90
2019-03-12T19:30:28.770Z,92.80
2019-03-12T19:33:07.561Z,93.30
2019-03-12T19:35:35.010Z,93.30
2019-03-12T19:38:02.901Z,93.40
2019-03-12T19:40:31.283Z,93.40
2019-03-12T19:42:58.675Z,93.40
2019-03-12T19:45:26.057Z,93.70
2019-03-12T19:47:53.505Z,93.40
2019-03-12T19:50:20.954Z,94.00
2019-03-12T19:52:48.344Z,93.80
2019-03-12T19:55:18.533Z,93.80
2019-03-12T19:57:45.879Z,93.70
2019-03-12T20:00:15.255Z,93.80
2019-03-12T20:02:43.730Z,93.90
2019-03-12T20:05:11.149Z,93.80
2019-03-12T20:07:38.670Z,94.10
2019-03-12T20:10:21.794Z,93.90
2019-03-12T20:13:15.482Z,94.00
2019-03-12T20:16:36.911Z,93.80
2019-03-12T20:20:10.522Z,94.40
2019-03-12T20:23:22.275Z,95.00
2019-03-12T20:26:29.121Z,94.70
2019-03-12T20:29:33.360Z,94.70
2019-03-12T20:32:49.214Z,94.90
2019-03-12T20:35:57.095Z,95.30
2019-03-12T20:39:11.533Z,94.90
2019-03-12T20:42:16.617Z,94.80
2019-03-12T20:45:27.867Z,95.30
2019-03-12T20:48:43.205Z,95.40
2019-03-12T20:51:51.026Z,95.60
2019-03-12T20:54:55.274Z,96.00
2019-03-12T20:58:26.189Z,96.20
2019-03-12T21:01:49.707Z,96.60
2019-03-12T21:05:11.401Z,96.70
2019-03-12T21:08:42.038Z,96.80
2019-03-12T21:11:52.710Z,96.80
2019-03-12T21:15:20.594Z,96.90
2019-03-12T21:18:31.773Z,97.00
2019-03-12T21:21:48.706Z,96.80
2019-03-12T21:25:10.007Z,97.10
2019-03-12T21:28:25.346Z,96.80
2019-03-12T21:30:52.675Z,97.10
2019-03-12T21:33:19.928Z,97.20
2019-03-12T21:35:47.179Z,97.60
2019-03-12T21:38:14.487Z,97.60
2019-03-12T21:40:41.866Z,97.90
2019-03-12T21:43:09.538Z,98.00
2019-03-12T21:45:37.153Z,97.90
2019-03-12T21:48:04.811Z,98.00
2019-03-12T21:50:32.121Z,98.10
2019-03-12T21:52:59.602Z,98.30
2019-03-12T21:55:26.870Z,98.30
2019-03-12T21:57:54.249Z,98.30
2019-03-12T22:00:21.717Z,98.20
2019-03-12T22:02:49.332Z,98.20
2019-03-12T22:05:17.309Z,98.10
2019-03-12T22:07:44.907Z,98.10
2019-03-12T22:10:12.388Z,97.90
2019-03-12T22:12:39.799Z,98.10
2019-03-12T22:15:07.770Z,97.90
2019-03-12T22:17:35.415Z,98.00
2019-03-12T22:20:03.542Z,98.10
2019-03-12T22:22:38.338Z,98.10
2019-03-12T22:25:07.890Z,97.90
2019-03-12T22:27:35.170Z,97.60
2019-03-12T22:30:02.846Z,98.20
2019-03-12T22:32:30.311Z,97.90
2019-03-12T22:34:57.647Z,97.90
2019-03-12T22:37:24.910Z,97.60
2019-03-12T22:39:52.267Z,97.40
2019-03-12T22:42:19.529Z,97.30
2019-03-12T22:44:46.795Z,97.20
2019-03-12T22:47:14.182Z,97.30
2019-03-12T22:49:41.750Z,97.00
2019-03-12T22:52:08.996Z,97.10
2019-03-12T22:54:36.275Z,97.00
2019-03-12T22:57:03.516Z,96.90
2019-03-12T22:59:30.871Z,96.90
2019-03-12T23:01:58.339Z,97.00
2019-03-12T23:04:25.582Z,97.20
2019-03-12T23:06:52.832Z,96.90
2019-03-12T23:09:20.092Z,96.90
2019-03-12T23:11:47.630Z,96.90
2019-03-12T23:14:14.985Z,96.70
2019-03-12T23:16:42.355Z,96.80
2019-03-12T23:19:09.795Z,96.90
2019-03-12T23:21:37.019Z,96.90
2019-03-12T23:24:04.298Z,96.90
2019-03-12T23:26:31.792Z,96.90
2019-03-12T23:28:59.124Z,96.90
2019-03-12T23:31:26.392Z,97.00
2019-03-12T23:33:53.632Z,97.20
2019-03-12T23:36:20.895Z,97.50
2019-03-12T23:38:48.539Z,97.60
2019-03-12T23:41:15.783Z,97.40
2019-03-12T23:43:43.134Z,97.20
2019-03-12T23:46:10.417Z,97.30
2019-03-12T23:48:37.647Z,97.20
2019-03-12T23:51:04.887Z,97.20
2019-03-12T23:53:32.135Z,97.20
2019-03-12T23:55:59.399Z,97.00
2019-03-12T23:58:30.194Z,97.20
